WEATHER DATA

YESTERDAY
Time Temp. Dewp. Hum. Wind dir Wind speed Wind gust Bar. 1h Prec. 24h Prec.
00:05 26.9 21.9 74 152 0.3 1.1 1007.2 0.0000 0.0000
00:16 26.8 21.8 74 182 0.6 1.4 1007.2 0.0000 0.0000
00:26 26.7 21.7 74 159 0.6 1.1 1006.8 0.0000 0.0000
00:35 26.6 21.8 75 180 1.1 2.8 1007.4 0.0000 0.0000
00:45 26.5 21.7 75 131 0.6 1.7 1007.8 0.0000 0.0000
00:56 26.6 21.8 75 127 1.1 3.3 1007.9 0.0000 0.0000
01:03 26.5 21.3 73 135 1.1 3.3 1007.9 0.0000 0.0000
01:14 26.3 20.8 72 170 1.1 3.1 1007.3 0.0000 0.0000
01:27 26 20.6 72 178 1.4 4.2 1008.7 0.3030 0.3000
01:35 25 19.6 72 157 3.3 9.2 1009 0.5050 0.5000
01:44 24.3 19.4 74 220 2.5 6.4 1009.1 1.0100 1.0000
01:55 23.6 19.3 77 198 3.1 5.6 1008.5 1.9190 1.9000
02:10 23.3 19.2 78 275 1.7 4.4 1010.2 2.3230 2.3000
02:24 22.9 19.1 79 187 2.8 7.2 1008.7 6.5650 7.1000
02:34 22.9 19.1 79 308 3.6 10.6 1010 6.4640 7.1000
02:47 22.9 19.3 80 270 2.8 10.3 1009.6 5.3530 7.1000
02:57 22.8 19.2 80 264 1.9 9.2 1009.8 5.0500 7.1000
03:16 22.7 19.3 81 306 1.4 7.2 1009.2 0.7070 7.1000
03:18 22.8 19.4 81 309 1.9 11.9 1009.1 0.0000 7.1000
03:29 22.8 19.4 81 315 1.7 11.1 1009 0.0000 7.1000
03:38 22.7 19.3 81 315 1.1 4.4 1009.1 0.0000 7.1000
03:49 22.6 19.2 81 331 1.1 2.8 1009.3 0.0000 7.1000
04:27 22.3 19.1 82 312 1.4 10.6 1009.2 0.0000 7.1000
04:39 22.4 19.2 82 281 1.4 8.1 1009.3 0.0000 7.1000
04:49 22.4 19.2 82 249 1.9 4.7 1009.2 0.0000 7.1000
05:04 22.3 19.1 82 256 1.7 7.5 1009.2 0.0000 7.1000
05:14 22.2 19 82 221 1.7 7.2 1009.1 0.0000 7.1000
05:24 22.1 18.9 82 241 1.7 6.1 1009.1 0.0000 7.1000
05:34 22 18.8 82 214 1.7 7.2 1009.1 0.0000 7.1000
05:45 22 18.8 82 251 1.9 4.4 1009.2 0.0000 7.1000
06:02 21.9 18.9 83 238 1.9 8.6 1009.4 0.0000 7.1000
06:18 21.8 18.8 83 237 1.9 7.8 1009.5 0.0000 7.1000
06:27 21.8 18.8 83 235 2.5 8.9 1009.4 0.0000 7.1000
06:37 21.8 18.8 83 254 1.9 6.4 1009.6 0.0000 7.1000
06:43 21.8 18.8 83 270 2.5 13.3 1009.7 0.0000 7.1000
06:59 21.9 18.9 83 255 2.5 6.4 1009.7 0.0000 7.1000
07:09 22.1 19.1 83 270 2.8 6.4 1009.6 0.0000 7.1000
07:20 22.5 19.7 84 207 3.1 10.8 1009.5 0.0000 7.1000
07:30 23 20.2 84 220 2.5 5.8 1009.5 0.0000 7.1000
07:37 23.4 20.3 83 243 2.5 7.8 1009.6 0.0000 7.1000
07:49 23.9 20.6 82 285 1.9 10.6 1009.7 0.0000 7.1000
08:10 24.7 21.2 81 222 2.8 5.8 1009.7 0.0000 7.1000
08:19 25 21.1 79 234 4.2 10.8 1009.7 0.0000 7.1000
08:29 25.3 21.4 79 302 3.1 6.4 1009.8 0.0000 7.1000
08:50 25.9 21.3 76 291 2.8 6.1 1009.9 0.0000 7.1000
09:00 26.1 21.1 74 294 2.8 5.8 1009.8 0.0000 7.1000
09:10 26.3 21.1 73 259 1.4 4.7 1009.9 0.0000 7.1000
09:20 26.6 21.4 73 270 1.9 5 1009.8 0.0000 7.1000
09:30 26.9 21.2 71 270 2.5 6.1 1009.9 0.0000 7.1000
09:40 27.2 21.3 70 263 2.5 4.7 1009.9 0.0000 7.1000
10:00 27.7 20.8 66 263 1.9 5 1010.1 0.0000 7.1000
10:21 27.9 19.7 61 262 2.5 5 1010.2 0.0000 7.1000
10:40 28.1 19.3 59 261 2.5 4.7 1010.2 0.0000 7.1000
10:50 28.3 19.2 58 252 1.9 4.2 1010.3 0.0000 7.1000
11:11 28.5 19.2 57 266 3.1 6.4 1010.4 0.0000 7.1000
11:30 28.7 19.3 57 263 1.9 7.2 1010.3 0.0000 7.1000
11:40 28.9 19 55 262 2.5 5 1010.2 0.0000 7.1000
11:50 29.2 19.5 56 270 1.4 4.4 1010.2 0.0000 7.1000
12:10 29.5 18.9 53 270 3.1 6.1 1010 0.0000 7.1000
12:25 29.8 19.2 53 270 1.7 5.6 1009.9 0.0000 7.1000
12:36 29.8 18.3 50 261 2.5 5.8 1009.7 0.0000 7.1000
12:49 30.1 18.9 51 256 1.7 4.7 1009.6 0.0000 7.1000
13:00 30.3 18.7 50 261 1.7 4.4 1009.6 0.0000 7.1000
13:10 30.5 18.6 49 261 1.9 5 1009.5 0.0000 7.1000
13:20 30.5 18.3 48 263 2.5 7.2 1009.5 0.0000 7.1000
13:25 30.6 18.3 48 270 1.4 4.4 1009.5 0.0000 7.1000
13:35 30.7 17.8 46 264 1.9 6.1 1009.4 0.0000 7.1000
13:46 30.7 17.8 46 270 1.9 5.8 1009.3 0.0000 7.1000
13:56 30.9 17.9 46 270 2.5 5.8 1009.2 0.0000 7.1000
14:06 31 17.7 45 270 1.9 6.1 1009.1 0.0000 7.1000
14:16 31 17.3 44 270 1.9 4.2 1009.1 0.0000 7.1000
14:26 30.9 16.5 42 270 1.9 5.6 1009.2 0.0000 7.1000
14:36 30.9 16.1 41 275 1.9 5 1009.1 0.0000 7.1000
14:51 30.9 16.5 42 276 1.9 4.7 1009 0.0000 7.1000
15:01 30.9 16.1 41 263 1.9 4.2 1008.8 0.0000 7.1000
15:11 30.9 15.7 40 270 2.8 7.2 1008.7 0.0000 7.1000
15:21 30.9 15.7 40 270 1.9 6.1 1008.6 0.0000 7.1000
15:32 30.9 15.7 40 277 1.9 4.7 1008.5 0.0000 7.1000
15:48 30.8 15.6 40 263 2.8 8.1 1008.4 0.0000 7.1000
15:58 30.8 15.6 40 270 1.9 5 1008.4 0.0000 7.1000
16:08 30.7 15.2 39 270 2.8 6.7 1008.4 0.0000 7.1000
16:11 30.6 15.1 39 270 2.8 6.1 1008.4 0.0000 7.1000
16:21 30.6 15.1 39 270 1.9 5.6 1008.4 0.0000 7.1000
16:31 30.6 15.5 40 281 1.7 5.6 1008.4 0.0000 7.1000
16:47 30.4 15.7 41 270 2.5 7.2 1008.6 0.0000 7.1000
16:58 30.2 15.5 41 266 2.5 6.1 1008.4 0.0000 7.1000
17:08 30.1 15.8 42 270 2.5 5.6 1008.4 0.0000 7.1000
17:18 30 15.7 42 270 1.4 3.3 1008.5 0.0000 7.1000
17:29 29.9 16 43 265 2.5 5.6 1008.5 0.0000 7.1000
17:48 29.6 16.1 44 270 1.7 6.1 1008.8 0.0000 7.1000
17:59 29.4 15.5 43 270 1.9 6.1 1008.9 0.0000 7.1000
18:10 29.2 15.7 44 286 1.4 3.1 1009 0.0000 7.1000
18:19 29 15.5 44 270 1.7 5.8 1009.1 0.0000 7.1000
18:29 28.8 15.3 44 263 1.7 5 1009.2 0.0000 7.1000
18:40 28.6 15.5 45 270 1.7 4.4 1009.3 0.0000 7.1000
18:50 28.3 15.2 45 270 1.7 4.4 1009.5 0.0000 7.1000
18:59 28 15 45 263 1.9 5 1009.6 0.0000 7.1000
19:09 27.8 14.8 45 259 1.7 5 1009.8 0.0000 7.1000
19:20 27.4 14.8 46 263 1.4 3.3 1010 0.0000 7.1000
19:30 27.1 14.5 46 261 1.4 3.1 1010.1 0.0000 7.1000
19:40 26.8 14.6 47 262 1.7 3.6 1010.3 0.0000 7.1000
19:50 26.5 14.3 47 270 1.4 4.7 1010.4 0.0000 7.1000
20:00 26.2 14.3 48 270 1.1 2.8 1010.5 0.0000 7.1000
20:15 26 14.1 48 270 1.1 3.1 1010.8 0.0000 7.1000
20:25 25.7 14.2 49 235 0.6 2.8 1010.9 0.0000 7.1000
20:35 25.5 14 49 90 0.6 2.5 1011.2 0.0000 7.1000
20:45 25.2 14 50 108 0.6 3.1 1011.4 0.0000 7.1000
20:55 24.8 14 51 90 0.6 1.9 1011.5 0.0000 7.1000
21:06 24.6 14.1 52 71 0.6 2.5 1011.8 0.0000 7.1000
21:15 24.4 13.9 52 109 1.1 2.8 1012 0.0000 7.1000
21:25 24.2 13.7 52 151 1.1 1.7 1012.3 0.0000 7.1000
21:36 24 13.5 52 169 1.1 2.8 1012.4 0.0000 7.1000
21:46 23.8 13.4 52 146 1.1 1.7 1012.6 0.0000 7.1000
21:56 23.5 13.4 53 122 0.6 1.7 1012.8 0.0000 7.1000
22:05 23.4 13.3 53 119 0.6 1.9 1012.9 0.0000 7.1000
22:16 23.3 13.2 53 140 0.6 1.7 1013 0.0000 7.1000
22:26 23.2 13.1 53 135 1.1 1.9 1013.1 0.0000 7.1000
22:36 23 12.9 53 141 0.6 1.9 1013.1 0.0000 7.1000
22:46 22.8 13 54 148 0.6 2.5 1013.3 0.0000 7.1000
22:57 22.5 13 55 126 0.6 1.7 1013.3 0.0000 7.1000
23:07 22.2 12.7 55 122 0.6 1.7 1013.3 0.0000 7.1000
23:17 21.9 12.7 56 138 0.6 1.7 1013.4 0.0000 7.1000
23:27 21.7 12.8 57 203 0.6 2.5 1013.3 0.0000 7.1000
23:37 21.5 12.6 57 194 0.6 1.9 1013.3 0.0000 7.1000
23:47 21.3 12.7 58 171 0.6 1.7 1013.3 0.0000

DAY STATISTIC

2020-02-19
TEMPERATURE
AVERAGE
26.3
HIGH
31.0
14:06
LOW
21.3
23:47
PRESSURE
AVERAGE
1009.8
HIGH
1013.4
23:17
LOW
1006.8
00:26
DEWPOINT
AVERAGE
17.5
HIGH
21.9
00:05
LOW
12.6
23:37
HUMIDITY
AVERAGE
61
HIGH
84
07:20
LOW
39
16:08
WIND SPEED
AVERAGE
1.8
HIGH
4.2
08:19
WIND GUST
AVERAGE
5.2
HIGH
13.3
06:43
WIND DIRECTION
PREVAILING
W
56.8%
N
0.0
NE
0.0
E
4.0
SE
12.8
S
8.8
SW
10.4
W
56.8
NW
7.2
PRECIPITATION
RAIN HOUR
6.6
RAIN DAY
7.1
TEMPERATURE (°C)
LOW
21.3
HIGH
31.0
AVERAGE
26.3
PRESSURE (hpa)
LOW
1006.8
HIGH
1013.4
AVERAGE
1009.8
DEVICE